• Join FlightAware (Why Join?)
  • Login
  • US Flag 
01:15PM EDT


 

Airport Tracker/Info


-or-


 

Live Flight TrackerFlight Track Log ✈ N613MW ✈ 05-May-2013 ✈ KPWK - KHAO

Flight Track Log - Related Links

Times and Time Zones

All times are in EDT time to prevent confusion due to time zone crossing. See the N613MW flight status page for this flight to view local times or setup timezone preferences in your user account.

Time Position Orientation Groundspeed Altitude Reporting Facility
EDT Latitude Longitude Course Direction KTS MPH feet Rate Location/Type
01:53PM 42.1333 -87.9167 56° Northeast 96 110 1,500  Level Chicago TRACON
01:54PM 42.1500 -87.8833 56° Northeast 112 129 1,900 240 Climbing Chicago TRACON
01:55PM 42.1450 -87.8433 100° East 139 160 2,000  Climbing Chicago Center
01:56PM 42.1392 -87.7883 98° East 142 163 2,000 120 Level Chicago Center
01:57PM 42.1344 -87.7319 96° East 147 169 2,300 540 Climbing Chicago Center
01:58PM 42.1167 -87.6667 110° East 129 148 3,300 720 Climbing Chicago TRACON
01:59PM 42.1000 -87.6333 124° Southeast 131 151 3,800 540 Climbing Chicago TRACON
02:00PM 42.0833 -87.6000 124° Southeast 126 145 4,400 420 Climbing Chicago TRACON
02:02PM 42.0444 -87.5242 125° Southeast 127 146 5,200 420 Climbing Chicago Center
02:03PM 42.0197 -87.4803 127° Southeast 124 143 5,800 480 Climbing Chicago Center
02:04PM 42.0033 -87.4408 119° Southeast 123 142 6,200 360 Climbing Chicago Center
02:05PM 42.0000 -87.4000 96° East 122 140 6,600 360 Climbing Chicago TRACON
02:06PM 41.9964 -87.3503 96° East 122 140 7,000 300 Climbing Chicago Center
02:07PM 41.9961 -87.3056 90° East 121 139 7,300 360 Climbing Chicago Center
02:08PM 41.9947 -87.2528 92° East 119 137 7,800 360 Climbing Chicago Center
02:09PM 41.9933 -87.2072 92° East 121 139 8,100 300 Climbing Chicago Center
02:10PM 41.9928 -87.1622 91° East 122 140 8,500 300 Climbing Chicago Center
02:11PM 41.9933 -87.1183 89° East 119 137 8,800 240 Climbing Chicago Center
02:12PM 41.9947 -87.0747 88° East 117 135 9,000  Climbing Chicago Center
02:13PM 41.9925 -87.0281 94° East 123 142 8,900  Descending Chicago Center
02:14PM 41.9533 -86.9906 145° Southeast 142 163 9,000  Climbing Chicago Center
02:15PM 41.9161 -86.9731 161° South 142 163 9,000  Level Chicago Center
02:17PM 41.8814 -86.9497 153° Southeast 140 161 9,000  Level Chicago Center
02:18PM 41.8464 -86.9206 148° Southeast 145 167 9,000  Level Chicago Center
02:19PM 41.8167 -86.8847 138° Southeast 146 168 9,000  Level Chicago Center
02:20PM 41.7825 -86.8444 139° Southeast 140 161 9,000  Level Chicago Center
02:21PM 41.7525 -86.8122 141° Southeast 140 161 9,000  Level Chicago Center
02:22PM 41.7217 -86.7844 146° Southeast 136 157 9,000  Level Chicago Center
02:23PM 41.6889 -86.7519 143° Southeast 143 165 9,000  Level Chicago Center
02:24PM 41.6567 -86.7194 143° Southeast 145 167 9,000  Level Chicago Center
02:25PM 41.6242 -86.6842 141° Southeast 149 171 9,000  Level Chicago Center
02:26PM 41.5853 -86.6447 143° Southeast 148 170 9,000  Level Chicago Center
02:27PM 41.5533 -86.6125 143° Southeast 144 166 9,000  Level Chicago Center
02:28PM 41.5192 -86.5811 145° Southeast 148 170 9,000  Level Chicago Center
02:29PM 41.4856 -86.5497 145° Southeast 148 170 9,000  Level Chicago Center
02:30PM 41.4522 -86.5178 144° Southeast 147 169 9,000  Level Chicago Center
02:31PM 41.4192 -86.4856 144° Southeast 146 168 9,000  Level Chicago Center
02:32PM 41.3817 -86.4469 142° Southeast 143 165 9,000  Level Chicago Center
02:33PM 41.3497 -86.4142 142° Southeast 144 166 9,000  Level Chicago Center
02:34PM 41.3183 -86.3825 143° Southeast 142 163 9,000  Level Chicago Center
02:35PM 41.2856 -86.3500 143° Southeast 145 167 9,000  Level Chicago Center
02:36PM 41.2528 -86.3183 144° Southeast 145 167 9,000  Level Chicago Center
02:37PM 41.2147 -86.2803 143° Southeast 143 165 9,000  Level Chicago Center
02:38PM 41.1822 -86.2503 145° Southeast 142 163 9,000  Level Chicago Center
02:39PM 41.1494 -86.2178 143° Southeast 147 169 9,000  Level Chicago Center
02:40PM 41.1183 -86.1861 143° Southeast 142 163 9,000  Level Chicago Center
02:41PM 41.0864 -86.1556 144° Southeast 142 163 9,000  Level Chicago Center
02:42PM 41.0553 -86.1233 142° Southeast 142 163 9,000 -120 Level Chicago Center
02:43PM 41.0369 -86.1044 142° Southeast 142 163 8,900 -120 Descending Chicago Center
02:43PM 41.0206 -86.0897 146° Southeast 144 166 8,900  Level Chicago Center
02:44PM 40.9861 -86.0578 145° Southeast 144 166 8,900  Level Chicago Center
02:45PM 40.9558 -86.0258 141° Southeast 144 166 8,900  Level Chicago Center
02:46PM 40.9214 -85.9936 145° Southeast 144 166 8,900  Level Chicago Center
02:47PM 40.8892 -85.9589 141° Southeast 142 163 8,900  Level Chicago Center
02:48PM 40.8586 -85.9300 144° Southeast 139 160 8,900 60 Level Chicago Center
02:49PM 40.8519 -85.9233 143° Southeast 140 161 9,000  Climbing Chicago Center
02:49PM 40.8261 -85.9008 147° Southeast 140 161 8,900  Descending Chicago Center
02:50PM 40.8192 -85.8942 144° Southeast 142 163 9,000  Climbing Chicago Center
02:50PM 40.7978 -85.8747 145° Southeast 139 160 8,900  Descending Chicago Center
02:51PM 40.7886 -85.8656 143° Southeast 136 157 9,000  Climbing Chicago Center
02:51PM 40.7694 -85.8458 142° Southeast 136 157 8,900  Descending Chicago Center
02:52PM 40.7589 -85.8369 147° Southeast 133 153 9,000  Climbing Chicago Center
02:52PM 40.7369 -85.8139 141° Southeast 135 155 8,900  Descending Chicago Center
02:53PM 40.7283 -85.8056 144° Southeast 137 158 9,000  Climbing Chicago Center
02:53PM 40.7083 -85.7878 146° Southeast 136 157 8,900  Descending Chicago Center
02:54PM 40.6975 -85.7772 144° Southeast 136 157 9,000  Climbing Chicago Center
02:54PM 40.6761 -85.7561 143° Southeast 136 157 8,900  Descending Chicago Center
02:55PM 40.6656 -85.7444 140° Southeast 139 160 9,000  Climbing Chicago Center
02:55PM 40.6436 -85.7244 145° Southeast 137 158 8,900  Descending Chicago Center
02:56PM 40.6283 -85.7069 139° Southeast 141 162 9,000  Climbing Chicago Center
02:56PM 40.6111 -85.6925 148° Southeast 137 158 8,900 -120 Descending Chicago Center
02:57PM 40.5806 -85.6611 142° Southeast 138 159 8,900 60 Level Chicago Center
02:58PM 40.5672 -85.6461 139° Southeast 139 160 9,000 60 Climbing Chicago Center
02:59PM 40.5361 -85.6167 144° Southeast 138 159 9,000  Level Chicago Center
03:00PM 40.5039 -85.5889 147° Southeast 139 160 9,000  Level Chicago Center
03:01PM 40.4742 -85.5589 142° Southeast 137 158 9,000  Level Chicago Center
03:02PM 40.4383 -85.5225 142° Southeast 136 157 9,000  Level Chicago Center
03:03PM 40.4081 -85.4944 145° Southeast 134 154 9,000  Level Chicago Center
03:04PM 40.3778 -85.4647 143° Southeast 135 155 9,000  Level Chicago Center
03:05PM 40.3467 -85.4369 146° Southeast 136 157 9,000  Level Chicago Center
03:06PM 40.3167 -85.4075 143° Southeast 135 155 9,000  Level Chicago Center
03:07PM 40.2856 -85.3781 144° Southeast 138 159 9,000 -60 Level Chicago Center
03:08PM 40.2622 -85.3536 141° Southeast 137 158 8,900 -60 Descending Indianapolis Center
03:09PM 40.2231 -85.3219 148° Southeast 137 158 8,900  Level Indianapolis Center
03:10PM 40.2022 -85.3022 144° Southeast 136 157 9,000  Climbing Indianapolis Center
03:10PM 40.1922 -85.2939 148° Southeast 136 157 8,900  Descending Indianapolis Center
03:11PM 40.1636 -85.2636 141° Southeast 134 154 9,000  Climbing Indianapolis Center
03:12PM 40.1369 -85.2325 138° Southeast 129 148 9,000  Level Indianapolis Center
03:13PM 40.1072 -85.2061 146° Southeast 130 150 9,000  Level Indianapolis Center
03:14PM 40.0753 -85.1714 140° Southeast 129 148 9,000  Level Indianapolis Center
03:15PM 40.0461 -85.1453 146° Southeast 131 151 9,000  Level Indianapolis Center
03:16PM 40.0150 -85.1161 144° Southeast 133 153 9,000 -240 Level Indianapolis Center
03:17PM 39.9833 -85.0883 146° Southeast 132 152 8,500 -360 Descending Indianapolis Center
03:18PM 39.9492 -85.0578 146° Southeast 142 163 8,300 -240 Descending Indianapolis Center
03:19PM 39.9119 -85.0219 144° Southeast 140 161 8,000 -300 Descending Indianapolis Center
03:20PM 39.8867 -85.0003 147° Southeast 137 158 7,700 -360 Descending Indianapolis Center
03:21PM 39.8458 -84.9608 143° Southeast 144 166 7,300 -480 Descending Indianapolis Center
03:22PM 39.8147 -84.9319 144° Southeast 151 174 6,800 -420 Descending Indianapolis Center
03:23PM 39.7800 -84.8969 142° Southeast 159 183 6,500 -420 Descending Indianapolis Center
03:24PM 39.7453 -84.8622 142° Southeast 159 183 6,000 -540 Descending Indianapolis Center
03:25PM 39.7053 -84.8375 155° Southeast 156 180 5,500 -540 Descending Indianapolis Center
03:27PM 39.6658 -84.7989 143° Southeast 155 178 4,900 -540 Descending Indianapolis Center
03:28PM 39.6306 -84.7658 144° Southeast 154 177 4,400 -540 Descending Indianapolis Center
03:29PM 39.5942 -84.7372 149° Southeast 151 174 3,900 -480 Descending Indianapolis Center
03:30PM 39.5572 -84.7078 148° Southeast 154 177 3,500 -300 Descending Indianapolis Center
03:31PM 39.5208 -84.6822 152° Southeast 155 178 3,300 -300 Descending Indianapolis Center
03:33PM 39.4500 -84.6167 144° Southeast 159 183 2,700 -360 Descending Cincinnati TRACON
03:35PM 39.3991 -84.5494 153° Southeast  Level FlightAware Approximate
03:42PM 39.3638 -84.5219 153° Southeast  Level Estimated
03:43PM 39.3638 -84.5219 153° Southeast  Level Estimated
03:44PM 39.3638 -84.5219 153° Southeast  Level Estimated